createdAt,value
2023-03-15T00:02:13.049Z,99823.22
2023-03-15T00:07:15.815Z,99822.25
2023-03-15T00:12:22.883Z,99829.84
2023-03-15T00:17:25.637Z,99847.88
2023-03-15T00:22:28.538Z,99853.03
2023-03-15T00:27:32.716Z,99849.91
2023-03-15T00:32:35.615Z,99845.41
2023-03-15T00:37:39.310Z,99857.22
2023-03-15T00:42:49.986Z,99847.34
2023-03-15T00:47:54.168Z,99855.97
2023-03-15T00:52:57.002Z,99849.25
2023-03-15T00:58:01.126Z,99855.63
2023-03-15T01:03:04.224Z,99856.81
2023-03-15T01:08:07.235Z,99863.53
2023-03-15T01:13:11.458Z,99857.88
2023-03-15T01:18:14.425Z,99874.28
2023-03-15T01:23:17.688Z,99867.94
2023-03-15T01:28:23.714Z,99883.69
2023-03-15T01:33:26.722Z,99885.28
2023-03-15T01:38:29.912Z,99897.38
2023-03-15T01:43:34.866Z,99896.53
2023-03-15T01:48:44.718Z,99899.19
2023-03-15T01:53:54.985Z,99898.69
2023-03-15T01:59:02.126Z,99892.44
2023-03-15T02:04:10.304Z,99895.81
2023-03-15T02:09:19.660Z,99911.97
2023-03-15T02:14:25.602Z,99916.81
2023-03-15T02:19:41.463Z,99908.72
2023-03-15T02:24:52.722Z,99913.47
2023-03-15T02:29:57.109Z,99916.53
2023-03-15T02:35:00.179Z,99915.81
2023-03-15T02:40:03.244Z,99924.53
2023-03-15T02:45:09.088Z,99932.78
2023-03-15T02:50:12.806Z,99932.97
2023-03-15T02:55:15.658Z,99950.22
2023-03-15T03:00:20.758Z,99952.88
2023-03-15T03:05:23.821Z,99963.41
2023-03-15T03:10:27.550Z,99969.59
2023-03-15T03:15:34.804Z,99985.81
2023-03-15T03:20:37.977Z,100000.94
2023-03-15T03:26:27.856Z,100012.41
2023-03-15T03:31:33.725Z,100021.13
2023-03-15T03:36:37.932Z,100019.56
2023-03-15T03:41:41.049Z,100023.16
2023-03-15T03:46:48.104Z,100027.81
2023-03-15T03:51:51.065Z,100040.47
2023-03-15T03:56:54.198Z,100042.97
2023-03-15T04:02:02.052Z,100059.59
2023-03-15T04:07:05.951Z,100063.16
2023-03-15T04:12:12.586Z,100061.47
2023-03-15T04:17:19.244Z,100080.69
2023-03-15T04:22:22.131Z,100071.47
2023-03-15T04:27:43.612Z,100074.28
2023-03-15T04:33:17.170Z,100099.78
2023-03-15T04:38:36.660Z,100098.06
2023-03-15T04:43:57.849Z,100102.06
2023-03-15T04:49:16.905Z,100126.50
2023-03-15T04:54:34.570Z,100125.88
2023-03-15T04:59:49.681Z,100121.31
2023-03-15T05:05:10.734Z,100124.16
2023-03-15T05:10:25.289Z,100119.31
2023-03-15T05:15:48.460Z,100150.06
2023-03-15T05:21:13.198Z,100147.09
2023-03-15T05:26:32.327Z,100158.31
2023-03-15T05:32:13.994Z,100157.44
2023-03-15T05:37:32.833Z,100172.09
2023-03-15T05:42:51.813Z,100175.72
2023-03-15T05:48:20.732Z,100176.88
2023-03-15T05:53:34.932Z,100198.88
2023-03-15T05:58:48.959Z,100212.97
2023-03-15T06:04:00.589Z,100228.84
2023-03-15T06:09:08.398Z,100237.66
2023-03-15T06:14:12.087Z,100243.53
2023-03-15T06:19:24.719Z,100247.44
2023-03-15T06:24:31.483Z,100253.63
2023-03-15T06:29:34.351Z,100261.06
2023-03-15T06:34:38.659Z,100273.66
2023-03-15T06:39:44.605Z,100287.50
2023-03-15T06:44:48.308Z,100287.66
2023-03-15T06:49:52.716Z,100292.81
2023-03-15T06:54:56.902Z,100301.69
2023-03-15T06:59:59.889Z,100301.72
2023-03-15T07:05:02.708Z,100305.38
2023-03-15T07:10:07.588Z,100315.38
2023-03-15T07:15:11.833Z,100331.59
2023-03-15T07:20:14.955Z,100332.78
2023-03-15T07:25:23.799Z,100341.28
2023-03-15T07:30:26.831Z,100357.78
2023-03-15T07:35:29.695Z,100346.53
2023-03-15T07:40:34.109Z,100342.97
2023-03-15T07:45:36.867Z,100357.41
2023-03-15T07:50:40.166Z,100367.84
2023-03-15T07:55:44.937Z,100384.09
2023-03-15T08:00:47.924Z,100397.75
2023-03-15T08:05:50.742Z,100388.25
2023-03-15T08:10:55.916Z,100411.53
2023-03-15T08:15:58.854Z,100401.75
2023-03-15T08:21:01.848Z,100412.16
2023-03-15T08:26:06.398Z,100422.06
2023-03-15T08:31:10.095Z,100425.84
2023-03-15T08:36:12.963Z,100442.06
2023-03-15T08:41:17.216Z,100452.88
2023-03-15T08:46:21.892Z,100466.56
2023-03-15T08:51:25.553Z,100473.22
2023-03-15T08:56:29.698Z,100481.84
2023-03-15T09:01:32.501Z,100483.44
2023-03-15T09:06:35.284Z,100497.47
2023-03-15T09:11:39.542Z,100487.16
2023-03-15T09:16:42.454Z,100499.34
2023-03-15T09:21:47.125Z,100506.59
2023-03-15T09:26:51.297Z,100515.63
2023-03-15T09:31:54.123Z,100516.31
2023-03-15T09:36:56.991Z,100519.28
2023-03-15T09:42:05.407Z,100539.16
2023-03-15T09:47:33.010Z,100534.88
2023-03-15T09:52:43.777Z,100535.00
2023-03-15T09:57:52.107Z,100530.81
2023-03-15T10:03:01.420Z,100537.19
2023-03-15T10:08:04.492Z,100537.72
2023-03-15T10:13:21.903Z,100538.97
2023-03-15T10:18:43.119Z,100536.09
2023-03-15T10:23:52.133Z,100535.38
2023-03-15T10:28:56.424Z,100535.22
2023-03-15T10:33:59.184Z,100531.31
2023-03-15T10:39:01.914Z,100530.88
2023-03-15T10:44:08.480Z,100531.31
2023-03-15T10:49:13.182Z,100548.44
2023-03-15T10:54:19.535Z,100544.41
2023-03-15T10:59:26.474Z,100542.81
2023-03-15T11:04:33.804Z,100551.19
2023-03-15T11:09:41.619Z,100554.88
2023-03-15T11:14:48.955Z,100563.22
2023-03-15T11:19:57.063Z,100562.66
2023-03-15T11:25:00.005Z,100581.16
2023-03-15T11:30:05.382Z,100577.28
2023-03-15T11:35:13.403Z,100566.13
2023-03-15T11:40:22.191Z,100579.09
2023-03-15T11:45:35.386Z,100584.72
2023-03-15T11:50:58.561Z,100578.34
2023-03-15T11:56:21.857Z,100592.03
2023-03-15T12:01:27.717Z,100586.00
2023-03-15T12:06:48.941Z,100588.47
2023-03-15T12:11:51.744Z,100591.47
2023-03-15T12:17:13.312Z,100602.69
2023-03-15T12:22:18.187Z,100593.59
2023-03-15T12:27:22.199Z,100581.19
2023-03-15T12:32:27.977Z,100580.69
2023-03-15T12:37:47.366Z,100597.50
2023-03-15T12:43:08.130Z,100606.78
2023-03-15T12:48:29.385Z,100612.44
2023-03-15T12:53:43.935Z,100594.91
2023-03-15T12:58:49.863Z,100580.81
2023-03-15T13:03:57.014Z,100586.91
2023-03-15T13:09:04.496Z,100587.63
2023-03-15T13:14:33.868Z,100593.53
2023-03-15T13:19:42.801Z,100603.19
2023-03-15T13:24:57.766Z,100607.84
2023-03-15T13:30:00.615Z,100597.59
2023-03-15T13:35:05.026Z,100585.69
2023-03-15T13:40:15.877Z,100588.53
2023-03-15T13:45:18.936Z,100600.41
2023-03-15T13:50:23.268Z,100605.53
2023-03-15T13:55:32.895Z,100619.97
2023-03-15T14:00:37.358Z,100622.88
2023-03-15T14:05:48.829Z,100649.97
2023-03-15T14:11:03.675Z,100661.66
2023-03-15T14:16:08.701Z,100673.13
2023-03-15T14:21:17.045Z,100669.66
2023-03-15T14:26:22.599Z,100667.81
2023-03-15T14:31:27.691Z,100660.72
2023-03-15T14:36:35.361Z,100650.63
2023-03-15T14:41:38.616Z,100653.13
2023-03-15T14:46:42.684Z,100655.50
2023-03-15T14:51:47.387Z,100666.09
2023-03-15T14:56:50.954Z,100674.22
2023-03-15T15:01:56.080Z,100667.66
2023-03-15T15:07:03.151Z,100675.44
2023-03-15T15:12:06.541Z,100672.97
2023-03-15T15:17:09.936Z,100670.50
2023-03-15T15:22:14.141Z,100677.06
2023-03-15T15:27:16.913Z,100670.81
2023-03-15T15:32:19.708Z,100667.00
2023-03-15T15:37:23.890Z,100677.38
2023-03-15T15:42:26.711Z,100678.41
2023-03-15T15:47:29.630Z,100683.75
2023-03-15T15:52:33.896Z,100678.69
2023-03-15T15:57:36.731Z,100684.56
2023-03-15T16:02:39.637Z,100683.00
2023-03-15T16:07:43.859Z,100689.03
2023-03-15T16:12:47.048Z,100692.88
2023-03-15T16:17:50.254Z,100685.16
2023-03-15T16:22:58.709Z,100699.56
2023-03-15T16:28:03.528Z,100701.56
2023-03-15T16:33:16.066Z,100704.88
2023-03-15T16:38:26.364Z,100703.47
2023-03-15T16:43:29.319Z,100703.69
2023-03-15T16:48:32.101Z,100711.56
2023-03-15T16:53:37.356Z,100710.75
2023-03-15T16:58:40.640Z,100724.50
2023-03-15T17:03:43.772Z,100726.47
2023-03-15T17:08:48.486Z,100725.88
2023-03-15T17:13:51.290Z,100733.22
2023-03-15T17:18:54.050Z,100741.00
2023-03-15T17:23:58.304Z,100740.41
2023-03-15T17:29:01.300Z,100740.03
2023-03-15T17:34:04.077Z,100744.28
2023-03-15T17:39:12.389Z,100748.84
2023-03-15T17:44:15.206Z,100752.84
2023-03-15T17:49:18.004Z,100753.44
2023-03-15T17:54:22.624Z,100759.38
2023-03-15T17:59:25.417Z,100758.56
2023-03-15T18:04:28.474Z,100763.75
2023-03-15T18:09:32.882Z,100770.44
2023-03-15T18:14:37.246Z,100765.50
2023-03-15T18:19:40.188Z,100777.22
2023-03-15T18:24:46.929Z,100776.09
2023-03-15T18:29:49.840Z,100780.09
2023-03-15T18:34:52.586Z,100775.78
2023-03-15T18:39:57.162Z,100786.28
2023-03-15T18:44:59.938Z,100790.75
2023-03-15T18:50:10.675Z,100785.56
2023-03-15T18:55:17.451Z,100787.91
2023-03-15T19:00:25.872Z,100791.09
2023-03-15T19:05:30.357Z,100804.59
2023-03-15T19:10:34.564Z,100799.28
2023-03-15T19:15:37.322Z,100805.63
2023-03-15T19:20:40.114Z,100823.44
2023-03-15T19:25:44.301Z,100820.56
2023-03-15T19:30:47.177Z,100821.47
2023-03-15T19:35:50.141Z,100820.56
2023-03-15T19:40:58.463Z,100831.44
2023-03-15T19:46:04.283Z,100812.81
2023-03-15T19:51:07.575Z,100819.19
2023-03-15T19:56:12.138Z,100832.69
2023-03-15T20:01:15.841Z,100842.00
2023-03-15T20:06:18.698Z,100831.19
2023-03-15T20:11:25.160Z,100839.81
2023-03-15T20:16:28.227Z,100836.16
2023-03-15T20:21:31.062Z,100838.22
2023-03-15T20:26:35.265Z,100848.44
2023-03-15T20:31:38.360Z,100855.72
2023-03-15T20:36:41.782Z,100848.84
2023-03-15T20:41:45.976Z,100869.09
2023-03-15T20:46:48.817Z,100866.56
2023-03-15T20:51:51.696Z,100864.13
2023-03-15T20:56:56.361Z,100868.66
2023-03-15T21:01:59.195Z,100869.06
2023-03-15T21:07:04.279Z,100863.00
2023-03-15T21:12:09.030Z,100858.00
2023-03-15T21:17:14.272Z,100853.50
2023-03-15T21:22:18.266Z,100858.75
2023-03-15T21:27:22.456Z,100855.34
2023-03-15T21:32:26.231Z,100859.31
2023-03-15T21:37:29.194Z,100861.88
2023-03-15T21:42:33.505Z,100857.53
2023-03-15T21:47:36.838Z,100855.97
2023-03-15T21:52:39.760Z,100861.69
2023-03-15T21:57:45.342Z,100862.34
2023-03-15T22:02:48.762Z,100868.78
2023-03-15T22:07:51.759Z,100867.19
2023-03-15T22:12:55.991Z,100869.16
2023-03-15T22:17:58.814Z,100865.25
2023-03-15T22:23:04.257Z,100867.19
2023-03-15T22:28:08.572Z,100861.25
2023-03-15T22:33:11.835Z,100860.22
2023-03-15T22:38:15.684Z,100873.75
2023-03-15T22:43:19.865Z,100871.75
2023-03-15T22:48:22.894Z,100871.75
2023-03-15T22:53:25.697Z,100856.81
2023-03-15T22:58:29.851Z,100866.41
2023-03-15T23:03:32.713Z,100864.13
2023-03-15T23:08:35.518Z,100853.97
2023-03-15T23:13:39.675Z,100869.94
2023-03-15T23:18:42.947Z,100865.81
2023-03-15T23:23:45.720Z,100870.69
2023-03-15T23:28:49.930Z,100876.09
2023-03-15T23:33:52.825Z,100879.69
2023-03-15T23:38:55.561Z,100872.69
2023-03-15T23:43:59.618Z,100880.03
2023-03-15T23:49:02.481Z,100882.53
2023-03-15T23:54:05.288Z,100888.00
2023-03-15T23:59:09.390Z,100886.19
